Terminal Aerodrome Forecast
Issued by NWS Lake Charles, LA

Home | Current Version | Previous Version | Text Only | Print | Product List | Glossary On
Versions: 1 2 3 4 5 6 7 8 9 10 11 12 13 14
226
FTUS44 KLCH 191147
TAFLCH
TAF
KLCH 191147Z 1912/2012 01013G20KT P6SM SKC
     FM191500 02015KT P6SM SKC
     FM192300 03005KT P6SM SKC=

USA.gov is the U.S. government's official web portal to all federal, state and local government web resources and services.